createdAt,value
2018-02-12T00:00:19.475Z,0
2018-02-12T00:01:18.660Z,0
2018-02-12T00:02:18.906Z,0
2018-02-12T00:03:19.133Z,0
2018-02-12T00:04:19.111Z,0
2018-02-12T00:05:19.415Z,0
2018-02-12T00:06:19.341Z,0
2018-02-12T00:07:19.306Z,0
2018-02-12T00:08:19.546Z,0
2018-02-12T00:09:18.730Z,0
2018-02-12T00:10:18.757Z,0
2018-02-12T00:11:18.949Z,0
2018-02-12T00:12:19.183Z,0
2018-02-12T00:13:18.640Z,0
2018-02-12T00:14:18.880Z,0
2018-02-12T00:15:18.854Z,0
2018-02-12T00:16:18.563Z,0
2018-02-12T00:17:19.062Z,0
2018-02-12T00:18:18.517Z,0
2018-02-12T00:19:19.018Z,0
2018-02-12T00:20:18.737Z,0
2018-02-12T00:21:19.281Z,0
2018-02-12T00:22:18.677Z,0
2018-02-12T00:23:19.195Z,0
2018-02-12T00:24:18.911Z,0
2018-02-12T00:25:18.876Z,0
2018-02-12T00:26:18.582Z,0
2018-02-12T00:27:18.568Z,0
2018-02-12T00:28:18.537Z,0
2018-02-12T00:29:18.786Z,0
2018-02-12T00:30:18.227Z,0
2018-02-12T00:31:18.785Z,0
2018-02-12T00:32:18.711Z,0
2018-02-12T00:33:18.422Z,0
2018-02-12T00:34:18.139Z,0
2018-02-12T00:35:18.389Z,0
2018-02-12T00:36:18.408Z,0
2018-02-12T00:37:18.332Z,0
2018-02-12T00:38:18.296Z,0
2018-02-12T00:39:18.568Z,0
2018-02-12T00:40:17.991Z,0
2018-02-12T00:41:18.017Z,0
2018-02-12T00:42:18.238Z,0
2018-02-12T00:43:18.183Z,0
2018-02-12T00:44:18.154Z,0
2018-02-12T00:45:17.881Z,0
2018-02-12T00:46:18.366Z,0
2018-02-12T00:47:18.343Z,0
2018-02-12T00:48:18.594Z,0
2018-02-12T00:49:18.036Z,0
2018-02-12T00:50:17.752Z,0
2018-02-12T00:51:18.266Z,0
2018-02-12T00:52:18.499Z,0
2018-02-12T00:53:18.217Z,0
2018-02-12T00:54:17.919Z,0
2018-02-12T00:55:17.892Z,0
2018-02-12T00:56:17.875Z,0
2018-02-12T00:57:17.902Z,0
2018-02-12T00:58:18.342Z,0
2018-02-12T00:59:17.539Z,0
2018-02-12T01:00:18.296Z,0
2018-02-12T01:01:18.008Z,0
2018-02-12T01:02:17.993Z,0
2018-02-12T01:03:17.434Z,0
2018-02-12T01:04:17.948Z,0
2018-02-12T01:05:17.662Z,0
2018-02-12T01:06:17.919Z,0
2018-02-12T01:07:17.348Z,0
2018-02-12T01:08:17.851Z,0
2018-02-12T01:09:17.821Z,0
2018-02-12T01:10:17.532Z,0
2018-02-12T01:11:17.786Z,0
2018-02-12T01:12:17.544Z,0
2018-02-12T01:13:17.206Z,0
2018-02-12T01:14:17.643Z,0
2018-02-12T01:15:17.678Z,0
2018-02-12T01:16:17.394Z,0
2018-02-12T01:17:17.635Z,0
2018-02-12T01:18:17.106Z,0
2018-02-12T01:19:17.338Z,0
2018-02-12T01:20:17.566Z,0
2018-02-12T01:21:17.536Z,0
2018-02-12T01:22:17.520Z,0
2018-02-12T01:23:17.228Z,0
2018-02-12T01:24:17.197Z,0
2018-02-12T01:25:16.920Z,0
2018-02-12T01:26:17.157Z,0
2018-02-12T01:27:16.870Z,0
2018-02-12T01:28:16.855Z,0
2018-02-12T01:29:17.341Z,0
2018-02-12T01:30:17.321Z,0
2018-02-12T01:31:17.035Z,0
2018-02-12T01:32:16.797Z,0
2018-02-12T01:33:17.254Z,0
2018-02-12T01:34:16.967Z,0
2018-02-12T01:35:16.938Z,0
2018-02-12T01:36:16.395Z,0
2018-02-12T01:37:17.154Z,0
2018-02-12T01:38:17.138Z,0
2018-02-12T01:39:17.373Z,0
2018-02-12T01:40:16.827Z,0
2018-02-12T01:41:16.803Z,0
2018-02-12T01:42:16.253Z,0
2018-02-12T01:43:16.748Z,0
2018-02-12T01:44:16.985Z,0
2018-02-12T01:45:16.701Z,0
2018-02-12T01:46:16.993Z,0
2018-02-12T01:47:16.395Z,0
2018-02-12T01:48:16.691Z,0
2018-02-12T01:49:16.612Z,0
2018-02-12T01:50:16.583Z,0
2018-02-12T01:51:16.295Z,0
2018-02-12T01:52:16.540Z,0
2018-02-12T01:53:16.506Z,0
2018-02-12T01:54:16.493Z,0
2018-02-12T01:55:16.460Z,0
2018-02-12T01:56:16.176Z,0
2018-02-12T01:57:16.685Z,0
2018-02-12T01:58:15.863Z,0
2018-02-12T01:59:16.633Z,0
2018-02-12T02:00:16.348Z,0
2018-02-12T02:01:15.801Z,0
2018-02-12T02:02:16.083Z,0
2018-02-12T02:03:16.329Z,0
2018-02-12T02:04:16.255Z,0
2018-02-12T02:05:16.481Z,0
2018-02-12T02:06:16.195Z,0
2018-02-12T02:07:15.910Z,0
2018-02-12T02:08:16.155Z,0
2018-02-12T02:09:16.128Z,0
2018-02-12T02:10:16.418Z,0
2018-02-12T02:11:16.134Z,0
2018-02-12T02:12:15.786Z,0
2018-02-12T02:13:16.032Z,0
2018-02-12T02:14:16.047Z,0
2018-02-12T02:15:15.724Z,0
2018-02-12T02:16:16.221Z,0
2018-02-12T02:17:16.199Z,0
2018-02-12T02:18:16.436Z,0
2018-02-12T02:19:15.889Z,0
2018-02-12T02:20:15.598Z,0
2018-02-12T02:21:16.103Z,0
2018-02-12T02:22:16.084Z,0
2018-02-12T02:23:16.330Z,0
2018-02-12T02:24:15.769Z,0
2018-02-12T02:25:16.009Z,0
2018-02-12T02:26:15.732Z,0
2018-02-12T02:27:15.440Z,0
2018-02-12T02:28:15.681Z,0
2018-02-12T02:29:15.436Z,0
2018-02-12T02:30:16.198Z,0
2018-02-12T02:31:15.873Z,0
2018-02-12T02:32:15.325Z,0
2018-02-12T02:33:15.560Z,0
2018-02-12T02:34:15.532Z,0
2018-02-12T02:35:15.515Z,0
2018-02-12T02:36:15.751Z,0
2018-02-12T02:37:15.457Z,0
2018-02-12T02:38:15.170Z,0
2018-02-12T02:39:15.147Z,0
2018-02-12T02:40:15.667Z,0
2018-02-12T02:41:15.363Z,0
2018-02-12T02:42:15.609Z,0
2018-02-12T02:43:15.692Z,0
2018-02-12T02:44:15.346Z,0
2018-02-12T02:45:14.747Z,0
2018-02-12T02:46:14.718Z,0
2018-02-12T02:47:15.481Z,0
2018-02-12T02:48:14.933Z,0
2018-02-12T02:49:15.429Z,0
2018-02-12T02:50:14.898Z,0
2018-02-12T02:51:14.599Z,0
2018-02-12T02:52:14.844Z,0
2018-02-12T02:53:15.608Z,0
2018-02-12T02:54:15.314Z,0
2018-02-12T02:55:15.296Z,0
2018-02-12T02:56:15.019Z,0
2018-02-12T02:57:15.256Z,0
2018-02-12T02:58:15.234Z,0
2018-02-12T02:59:14.998Z,0
2018-02-12T03:00:15.181Z,0
2018-02-12T03:01:15.418Z,0
2018-02-12T03:02:14.599Z,0
2018-02-12T03:03:14.855Z,0
2018-02-12T03:04:14.814Z,0
2018-02-12T03:05:14.535Z,0
2018-02-12T03:06:15.048Z,0
2018-02-12T03:07:15.271Z,0
2018-02-12T03:08:15.247Z,0
2018-02-12T03:09:14.759Z,0
2018-02-12T03:10:14.675Z,0
2018-02-12T03:11:14.395Z,0
2018-02-12T03:12:14.625Z,0
2018-02-12T03:13:14.090Z,0
2018-02-12T03:14:14.262Z,0
2018-02-12T03:15:14.035Z,0
2018-02-12T03:16:15.063Z,0
2018-02-12T03:17:14.244Z,0
2018-02-12T03:18:14.487Z,0
2018-02-12T03:19:14.465Z,0
2018-02-12T03:20:14.974Z,0
2018-02-12T03:21:14.422Z,0
2018-02-12T03:22:14.654Z,0
2018-02-12T03:23:14.372Z,0
2018-02-12T03:24:14.604Z,0
2018-02-12T03:25:14.896Z,0
2018-02-12T03:26:14.293Z,0
2018-02-12T03:27:14.288Z,0
2018-02-12T03:28:14.250Z,0
2018-02-12T03:29:13.973Z,0
2018-02-12T03:30:14.211Z,0
2018-02-12T03:31:14.717Z,0
2018-02-12T03:32:14.422Z,0
2018-02-12T03:33:14.388Z,0
2018-02-12T03:34:13.853Z,0
2018-02-12T03:35:14.083Z,0
2018-02-12T03:36:14.608Z,0
2018-02-12T03:37:14.035Z,0
2018-02-12T03:38:14.566Z,0
2018-02-12T03:39:14.244Z,0
2018-02-12T03:40:14.271Z,0
2018-02-12T03:41:13.695Z,0
2018-02-12T03:42:14.175Z,0
2018-02-12T03:43:13.894Z,0
2018-02-12T03:44:13.873Z,0
2018-02-12T03:45:13.848Z,0
2018-02-12T03:46:13.821Z,0
2018-02-12T03:47:13.798Z,0
2018-02-12T03:48:14.032Z,0
2018-02-12T03:49:13.949Z,0
2018-02-12T03:50:13.781Z,0
2018-02-12T03:51:13.970Z,0
2018-02-12T03:52:13.683Z,0
2018-02-12T03:53:13.649Z,0
2018-02-12T03:54:13.892Z,0
2018-02-12T03:55:13.605Z,0
2018-02-12T03:56:13.324Z,0
2018-02-12T03:57:13.820Z,0
2018-02-12T03:58:13.534Z,0
2018-02-12T03:59:13.777Z,0
2018-02-12T04:00:13.765Z,0
2018-02-12T04:01:13.468Z,0
2018-02-12T04:02:12.914Z,0
2018-02-12T04:03:13.415Z,0
2018-02-12T04:04:13.657Z,0
2018-02-12T04:05:13.681Z,0
2018-02-12T04:06:13.354Z,0
2018-02-12T04:07:13.051Z,0
2018-02-12T04:08:13.573Z,0
2018-02-12T04:09:13.266Z,0
2018-02-12T04:10:13.773Z,0
2018-02-12T04:11:12.957Z,0
2018-02-12T04:12:13.458Z,0
2018-02-12T04:13:12.910Z,0
2018-02-12T04:14:13.149Z,0
2018-02-12T04:15:13.701Z,0
2018-02-12T04:16:13.094Z,0
2018-02-12T04:17:12.809Z,0
2018-02-12T04:18:12.789Z,0
2018-02-12T04:19:13.033Z,0
2018-02-12T04:20:13.003Z,0
2018-02-12T04:21:12.975Z,0
2018-02-12T04:22:12.956Z,0
2018-02-12T04:23:12.938Z,0
2018-02-12T04:24:13.159Z,0
2018-02-12T04:25:13.196Z,0
2018-02-12T04:26:12.858Z,0
2018-02-12T04:27:13.102Z,0
2018-02-12T04:28:13.068Z,0
2018-02-12T04:29:12.788Z,0
2018-02-12T04:30:13.047Z,0
2018-02-12T04:31:12.745Z,0
2018-02-12T04:32:12.710Z,0
2018-02-12T04:33:12.690Z,0
2018-02-12T04:34:12.403Z,0
2018-02-12T04:35:12.637Z,0
2018-02-12T04:36:12.402Z,0
2018-02-12T04:37:13.132Z,0
2018-02-12T04:38:12.574Z,0
2018-02-12T04:39:12.807Z,0
2018-02-12T04:40:12.778Z,0
2018-02-12T04:41:12.757Z,0
2018-02-12T04:42:12.471Z,0
2018-02-12T04:43:12.704Z,0
2018-02-12T04:44:12.685Z,0
2018-02-12T04:45:12.932Z,0
2018-02-12T04:46:12.108Z,0
2018-02-12T04:47:11.819Z,0
2018-02-12T04:48:12.592Z,0
2018-02-12T04:49:12.055Z,0
2018-02-12T04:50:12.822Z,0
2018-02-12T04:51:12.596Z,0
2018-02-12T04:52:12.229Z,0
2018-02-12T04:53:11.949Z,0
2018-02-12T04:54:12.449Z,0
2018-02-12T04:55:12.170Z,0
2018-02-12T04:56:12.145Z,0
2018-02-12T04:57:11.852Z,0
2018-02-12T04:58:12.349Z,0
2018-02-12T04:59:12.374Z,0
2018-02-12T05:00:12.305Z,0
2018-02-12T05:01:11.809Z,0
2018-02-12T05:02:11.998Z,0
2018-02-12T05:03:12.239Z,0
2018-02-12T05:04:12.460Z,0
2018-02-12T05:05:12.182Z,0
2018-02-12T05:06:12.161Z,0
2018-02-12T05:07:11.876Z,0
2018-02-12T05:08:11.575Z,0
2018-02-12T05:09:11.820Z,0
2018-02-12T05:10:11.794Z,0
2018-02-12T05:11:11.768Z,0
2018-02-12T05:12:11.527Z,0
2018-02-12T05:13:11.981Z,0
2018-02-12T05:14:11.896Z,0
2018-02-12T05:15:11.411Z,0
2018-02-12T05:16:11.914Z,0
2018-02-12T05:17:11.890Z,0
2018-02-12T05:18:11.871Z,0
2018-02-12T05:19:11.311Z,0
2018-02-12T05:20:11.833Z,0
2018-02-12T05:21:11.529Z,0
2018-02-12T05:22:11.826Z,0
2018-02-12T05:23:11.493Z,0
2018-02-12T05:24:11.718Z,0
2018-02-12T05:25:11.438Z,0
2018-02-12T05:26:11.408Z,0
2018-02-12T05:27:11.385Z,0
2018-02-12T05:28:11.360Z,0
2018-02-12T05:29:10.815Z,0
2018-02-12T05:30:11.313Z,0
2018-02-12T05:31:11.021Z,0
2018-02-12T05:32:11.578Z,0
2018-02-12T05:33:11.502Z,0
2018-02-12T05:34:11.480Z,0
2018-02-12T05:35:11.464Z,0
2018-02-12T05:36:11.169Z,0
2018-02-12T05:37:11.195Z,0
2018-02-12T05:38:11.126Z,0
2018-02-12T05:39:11.096Z,0
2018-02-12T05:40:11.069Z,0
2018-02-12T05:41:11.592Z,0
2018-02-12T05:42:11.401Z,0
2018-02-12T05:43:10.470Z,0
2018-02-12T05:44:10.708Z,0
2018-02-12T05:45:10.687Z,0
2018-02-12T05:46:10.921Z,0
2018-02-12T05:47:11.472Z,0
2018-02-12T05:48:10.874Z,0
2018-02-12T05:49:10.884Z,0
2018-02-12T05:50:10.827Z,0
2018-02-12T05:51:10.803Z,0
2018-02-12T05:52:11.362Z,0
2018-02-12T05:53:10.757Z,0
2018-02-12T05:54:10.469Z,0
2018-02-12T05:55:10.965Z,0
2018-02-12T05:56:10.148Z,0
2018-02-12T05:57:10.392Z,0
2018-02-12T05:58:10.631Z,0
2018-02-12T05:59:10.613Z,0
2018-02-12T06:00:10.587Z,0
2018-02-12T06:01:10.822Z,0
2018-02-12T06:02:10.270Z,0
2018-02-12T06:03:10.302Z,0
2018-02-12T06:04:10.744Z,0
2018-02-12T06:05:10.729Z,0
2018-02-12T06:06:10.440Z,0
2018-02-12T06:07:10.159Z,0
2018-02-12T06:08:10.712Z,0
2018-02-12T06:09:10.382Z,0
2018-02-12T06:10:10.608Z,0
2018-02-12T06:11:10.366Z,0
2018-02-12T06:12:10.041Z,0
2018-02-12T06:13:10.849Z,0
2018-02-12T06:14:10.783Z,0
2018-02-12T06:15:10.222Z,0
2018-02-12T06:16:10.465Z,0
2018-02-12T06:17:09.917Z,0
2018-02-12T06:18:10.458Z,0
2018-02-12T06:19:10.126Z,0
2018-02-12T06:20:10.355Z,0
2018-02-12T06:21:10.075Z,0
2018-02-12T06:22:10.060Z,0
2018-02-12T06:23:10.358Z,0
2018-02-12T06:24:10.274Z,0
2018-02-12T06:25:09.990Z,0
2018-02-12T06:26:09.701Z,0
2018-02-12T06:27:10.203Z,0
2018-02-12T06:28:09.921Z,0
2018-02-12T06:29:09.885Z,0
2018-02-12T06:30:09.605Z,0
2018-02-12T06:31:09.579Z,0
2018-02-12T06:32:09.812Z,0
2018-02-12T06:33:10.112Z,0
2018-02-12T06:34:09.777Z,0
2018-02-12T06:35:09.742Z,0
2018-02-12T06:36:09.193Z,0
2018-02-12T06:37:09.698Z,0
2018-02-12T06:38:09.937Z,0
2018-02-12T06:39:09.917Z,0
2018-02-12T06:40:09.616Z,0
2018-02-12T06:41:09.865Z,0
2018-02-12T06:42:09.836Z,0
2018-02-12T06:43:09.873Z,0
2018-02-12T06:44:09.012Z,0
2018-02-12T06:45:10.037Z,0
2018-02-12T06:46:09.476Z,0
2018-02-12T06:47:09.469Z,0
2018-02-12T06:48:09.690Z,0
2018-02-12T06:49:09.664Z,0
2018-02-12T06:50:09.375Z,5
2018-02-12T06:51:09.624Z,5
2018-02-12T06:52:09.327Z,5
2018-02-12T06:53:09.634Z,5
2018-02-12T06:54:09.289Z,5
2018-02-12T06:55:08.996Z,5
2018-02-12T06:56:08.975Z,5
2018-02-12T06:57:09.472Z,5
2018-02-12T06:58:09.463Z,5
2018-02-12T06:59:09.491Z,5
2018-02-12T07:00:09.150Z,5
2018-02-12T07:01:09.142Z,5
2018-02-12T07:02:09.096Z,10
2018-02-12T07:03:09.340Z,10
2018-02-12T07:04:09.619Z,10
2018-02-12T07:05:09.020Z,10
2018-02-12T07:06:08.994Z,10
2018-02-12T07:07:08.702Z,10
2018-02-12T07:08:09.469Z,15
2018-02-12T07:09:08.653Z,15
2018-02-12T07:10:08.899Z,15
2018-02-12T07:11:08.876Z,15
2018-02-12T07:12:08.324Z,15
2018-02-12T07:13:09.105Z,15
2018-02-12T07:14:08.999Z,15
2018-02-12T07:15:09.042Z,20
2018-02-12T07:16:09.014Z,20
2018-02-12T07:17:09.007Z,20
2018-02-12T07:18:08.706Z,15
2018-02-12T07:19:08.948Z,15
2018-02-12T07:20:08.661Z,20
2018-02-12T07:21:08.375Z,20
2018-02-12T07:22:09.146Z,20
2018-02-12T07:23:08.596Z,25
2018-02-12T07:24:08.620Z,20
2018-02-12T07:25:08.286Z,20
2018-02-12T07:26:08.795Z,20
2018-02-12T07:27:08.506Z,20
2018-02-12T07:28:08.475Z,25
2018-02-12T07:29:08.182Z,25
2018-02-12T07:30:08.428Z,25
2018-02-12T07:31:07.874Z,30
2018-02-12T07:32:08.371Z,30
2018-02-12T07:33:08.093Z,35
2018-02-12T07:34:08.652Z,35
2018-02-12T07:35:08.300Z,40
2018-02-12T07:36:08.022Z,45
2018-02-12T07:37:08.613Z,45
2018-02-12T07:38:07.966Z,45
2018-02-12T07:39:08.477Z,45
2018-02-12T07:40:08.187Z,40
2018-02-12T07:41:07.898Z,40
2018-02-12T07:42:08.405Z,40
2018-02-12T07:43:08.377Z,45
2018-02-12T07:44:08.136Z,45
2018-02-12T07:45:07.802Z,55
2018-02-12T07:46:08.044Z,55
2018-02-12T07:47:08.286Z,65
2018-02-12T07:48:07.731Z,75
2018-02-12T07:49:08.556Z,80
2018-02-12T07:50:07.956Z,90
2018-02-12T07:51:07.665Z,95
2018-02-12T07:52:07.641Z,95
2018-02-12T07:53:07.621Z,90
2018-02-12T07:54:07.898Z,85
2018-02-12T07:55:07.880Z,95
2018-02-12T07:56:07.805Z,85
2018-02-12T07:57:08.040Z,100
2018-02-12T07:58:07.769Z,110
2018-02-12T07:59:08.008Z,120
2018-02-12T08:00:07.722Z,145
2018-02-12T08:01:07.434Z,155
2018-02-12T08:02:07.415Z,145
2018-02-12T08:03:07.929Z,135
2018-02-12T08:04:07.634Z,105
2018-02-12T08:05:07.654Z,80
2018-02-12T08:06:07.842Z,70
2018-02-12T08:07:08.084Z,65
2018-02-12T08:08:07.268Z,70
2018-02-12T08:09:07.777Z,65
2018-02-12T08:10:07.484Z,70
2018-02-12T08:11:07.467Z,65
2018-02-12T08:12:07.494Z,60
2018-02-12T08:13:07.417Z,55
2018-02-12T08:14:07.390Z,50
2018-02-12T08:15:07.153Z,50
2018-02-12T08:16:07.356Z,50
2018-02-12T08:17:07.059Z,45
2018-02-12T08:18:07.603Z,40
2018-02-12T08:19:07.030Z,35
2018-02-12T08:20:07.541Z,35
2018-02-12T08:21:07.518Z,30
2018-02-12T08:22:06.958Z,35
2018-02-12T08:23:06.930Z,40
2018-02-12T08:24:07.428Z,45
2018-02-12T08:25:07.485Z,45
2018-02-12T08:26:07.450Z,45
2018-02-12T08:27:07.621Z,50
2018-02-12T08:28:07.363Z,55
2018-02-12T08:29:06.831Z,60
2018-02-12T08:30:06.697Z,65
2018-02-12T08:31:06.761Z,65
2018-02-12T08:32:07.703Z,65
2018-02-12T08:33:07.222Z,65
2018-02-12T08:34:07.148Z,65
2018-02-12T08:35:06.920Z,70
2018-02-12T08:36:07.208Z,70
2018-02-12T08:37:07.134Z,75
2018-02-12T08:38:06.832Z,75
2018-02-12T08:39:07.344Z,75
2018-02-12T08:40:07.322Z,80
2018-02-12T08:41:07.085Z,80
2018-02-12T08:42:06.737Z,75
2018-02-12T08:43:07.256Z,70
2018-02-12T08:44:06.950Z,70
2018-02-12T08:45:07.222Z,70
2018-02-12T08:46:06.954Z,70
2018-02-12T08:47:06.617Z,65
2018-02-12T08:48:06.325Z,65
2018-02-12T08:49:06.310Z,55
2018-02-12T08:50:06.570Z,60
2018-02-12T08:51:06.784Z,65
2018-02-12T08:52:06.788Z,70
2018-02-12T08:53:06.484Z,70
2018-02-12T08:54:06.725Z,65
2018-02-12T08:55:06.427Z,55
2018-02-12T08:56:06.410Z,45
2018-02-12T08:57:06.687Z,50
2018-02-12T08:58:05.833Z,50
2018-02-12T08:59:06.596Z,55
2018-02-12T09:00:06.853Z,55
2018-02-12T09:01:06.609Z,65
2018-02-12T09:02:06.528Z,70
2018-02-12T09:03:06.258Z,75
2018-02-12T09:04:06.248Z,85
2018-02-12T09:05:06.194Z,100
2018-02-12T09:06:06.703Z,125
2018-02-12T09:07:06.409Z,150
2018-02-12T09:08:06.133Z,175
2018-02-12T09:09:06.110Z,210
2018-02-12T09:10:06.279Z,250
2018-02-12T09:11:06.568Z,245
2018-02-12T09:12:06.046Z,275
2018-02-12T09:13:06.004Z,230
2018-02-12T09:14:06.250Z,200
2018-02-12T09:15:06.435Z,195
2018-02-12T09:16:05.416Z,170
2018-02-12T09:17:05.937Z,140
2018-02-12T09:18:05.639Z,125
2018-02-12T09:19:05.612Z,125
2018-02-12T09:20:05.596Z,200
2018-02-12T09:21:06.087Z,185
2018-02-12T09:22:06.146Z,285
2018-02-12T09:23:06.041Z,255
2018-02-12T09:24:05.755Z,175
2018-02-12T09:25:05.465Z,165
2018-02-12T09:26:05.834Z,300
2018-02-12T09:27:05.688Z,430
2018-02-12T09:28:05.677Z,470
2018-02-12T09:29:05.665Z,470
2018-02-12T09:30:05.367Z,345
2018-02-12T09:31:05.599Z,290
2018-02-12T09:32:05.107Z,320
2018-02-12T09:33:05.298Z,385
2018-02-12T09:34:05.808Z,345
2018-02-12T09:35:05.514Z,280
2018-02-12T09:36:05.764Z,230
2018-02-12T09:37:05.746Z,205
2018-02-12T09:38:05.459Z,210
2018-02-12T09:39:05.451Z,200
2018-02-12T09:40:05.421Z,180
2018-02-12T09:41:05.140Z,185
2018-02-12T09:42:05.637Z,215
2018-02-12T09:43:05.350Z,225
2018-02-12T09:44:05.607Z,300
2018-02-12T09:45:05.046Z,470
2018-02-12T09:46:05.823Z,520
2018-02-12T09:47:05.320Z,560
2018-02-12T09:48:05.771Z,580
2018-02-12T09:49:05.225Z,390
2018-02-12T09:50:05.041Z,235
2018-02-12T09:51:05.200Z,220
2018-02-12T09:52:05.178Z,360
2018-02-12T09:53:05.466Z,355
2018-02-12T09:54:05.128Z,345
2018-02-12T09:55:05.105Z,495
2018-02-12T09:56:05.359Z,570
2018-02-12T09:57:05.170Z,580
2018-02-12T09:58:05.051Z,590
2018-02-12T09:59:04.503Z,435
2018-02-12T10:00:04.750Z,270
2018-02-12T10:01:04.988Z,220
2018-02-12T10:02:04.712Z,220
2018-02-12T10:03:04.691Z,255
2018-02-12T10:04:05.205Z,250
2018-02-12T10:05:04.909Z,240
2018-02-12T10:06:05.419Z,220
2018-02-12T10:07:05.193Z,250
2018-02-12T10:08:04.853Z,220
2018-02-12T10:09:05.095Z,205
2018-02-12T10:10:04.561Z,210
2018-02-12T10:11:04.795Z,220
2018-02-12T10:12:05.041Z,250
2018-02-12T10:13:04.500Z,265
2018-02-12T10:14:04.745Z,230
2018-02-12T10:15:04.981Z,240
2018-02-12T10:16:04.969Z,235
2018-02-12T10:17:04.684Z,245
2018-02-12T10:18:04.401Z,250
2018-02-12T10:19:04.644Z,265
2018-02-12T10:20:04.912Z,305
2018-02-12T10:21:04.592Z,395
2018-02-12T10:22:05.100Z,530
2018-02-12T10:23:23.061Z,360
2018-02-12T10:24:04.016Z,280
2018-02-12T10:25:04.538Z,660
2018-02-12T10:26:04.502Z,675
2018-02-12T10:27:04.748Z,290
2018-02-12T10:28:04.466Z,465
2018-02-12T10:29:04.440Z,625
2018-02-12T10:30:04.162Z,470
2018-02-12T10:31:04.152Z,415
2018-02-12T10:32:04.388Z,460
2018-02-12T10:33:04.736Z,535
2018-02-12T10:34:04.621Z,585
2018-02-12T10:35:04.075Z,550
2018-02-12T10:36:04.066Z,470
2018-02-12T10:37:04.571Z,570
2018-02-12T10:38:04.025Z,515
2018-02-12T10:39:04.267Z,535
2018-02-12T10:40:04.514Z,620
2018-02-12T10:41:04.511Z,615
2018-02-12T10:42:04.246Z,475
2018-02-12T10:43:04.274Z,400
2018-02-12T10:44:03.934Z,375
2018-02-12T10:45:04.725Z,420
2018-02-12T10:46:03.897Z,425
2018-02-12T10:47:04.135Z,305
2018-02-12T10:48:04.138Z,345
2018-02-12T10:49:04.434Z,355
2018-02-12T10:50:04.114Z,275
2018-02-12T10:51:04.625Z,225
2018-02-12T10:52:04.077Z,275
2018-02-12T10:53:03.564Z,285
2018-02-12T10:54:04.351Z,255
2018-02-12T10:55:04.544Z,305
2018-02-12T10:56:04.253Z,375
2018-02-12T10:57:03.973Z,330
2018-02-12T10:58:03.968Z,315
2018-02-12T10:59:03.947Z,385
2018-02-12T11:00:04.462Z,345
2018-02-12T11:01:04.173Z,415
2018-02-12T11:02:04.157Z,270
2018-02-12T11:03:04.201Z,430
2018-02-12T11:04:03.609Z,440
2018-02-12T11:05:03.851Z,255
2018-02-12T11:06:03.300Z,580
2018-02-12T11:07:04.081Z,580
2018-02-12T11:08:03.798Z,570
2018-02-12T11:09:03.776Z,705
2018-02-12T11:10:03.494Z,770
2018-02-12T11:11:03.479Z,790
2018-02-12T11:12:04.283Z,290
2018-02-12T11:13:04.030Z,810
2018-02-12T11:14:03.694Z,275
2018-02-12T11:15:04.151Z,250
2018-02-12T11:16:04.188Z,185
2018-02-12T11:17:03.641Z,250
2018-02-12T11:18:03.678Z,795
2018-02-12T11:19:03.617Z,580
2018-02-12T11:20:04.121Z,620
2018-02-12T11:21:04.114Z,600
2018-02-12T11:22:03.047Z,265
2018-02-12T11:23:03.610Z,455
2018-02-12T11:24:03.532Z,305
2018-02-12T11:25:03.782Z,450
2018-02-12T11:26:03.495Z,470
2018-02-12T11:27:03.753Z,210
2018-02-12T11:28:03.491Z,325
2018-02-12T11:29:03.457Z,795
2018-02-12T11:30:03.716Z,690
2018-02-12T11:31:03.157Z,365
2018-02-12T11:32:02.886Z,480
2018-02-12T11:33:03.442Z,430
2018-02-12T11:34:03.658Z,425
2018-02-12T11:35:03.111Z,355
2018-02-12T11:36:03.075Z,480
2018-02-12T11:37:03.848Z,665
2018-02-12T11:38:03.569Z,675
2018-02-12T11:39:03.027Z,580
2018-02-12T11:40:03.293Z,510
2018-02-12T11:41:03.277Z,475
2018-02-12T11:42:02.981Z,560
2018-02-12T11:43:03.547Z,745
2018-02-12T11:44:03.231Z,800
2018-02-12T11:45:03.460Z,840
2018-02-12T11:46:03.232Z,195
2018-02-12T11:47:03.435Z,175
2018-02-12T11:48:03.433Z,745
2018-02-12T11:49:03.682Z,550
2018-02-12T11:50:03.405Z,725
2018-02-12T11:51:02.589Z,390
2018-02-12T11:52:03.108Z,485
2018-02-12T11:53:02.819Z,155
2018-02-12T11:54:03.123Z,155
2018-02-12T11:55:03.315Z,250
2018-02-12T11:56:03.056Z,235
2018-02-12T11:57:02.770Z,205
2018-02-12T11:58:02.853Z,165
2018-02-12T11:59:03.013Z,145
2018-02-12T12:00:03.259Z,365
2018-02-12T12:01:02.980Z,145
2018-02-12T12:02:02.967Z,125
2018-02-12T12:03:03.208Z,105
2018-02-12T12:04:02.722Z,95
2018-02-12T12:05:02.652Z,95
2018-02-12T12:06:02.638Z,95
2018-02-12T12:07:03.417Z,90
2018-02-12T12:08:02.873Z,85
2018-02-12T12:09:03.388Z,85
2018-02-12T12:10:02.838Z,90
2018-02-12T12:11:02.551Z,100
2018-02-12T12:12:02.272Z,105
2018-02-12T12:13:02.791Z,110
2018-02-12T12:14:03.081Z,835
2018-02-12T12:15:02.763Z,910
2018-02-12T12:16:02.492Z,920
2018-02-12T12:17:02.973Z,910
2018-02-12T12:18:03.212Z,890
2018-02-12T12:19:02.413Z,905
2018-02-12T12:20:02.413Z,935
2018-02-12T12:21:02.638Z,940
2018-02-12T12:22:02.644Z,935
2018-02-12T12:23:02.632Z,965
2018-02-12T12:24:02.658Z,1000
2018-02-12T12:25:02.085Z,995
2018-02-12T12:26:02.869Z,985
2018-02-12T12:27:03.089Z,960
2018-02-12T12:28:03.076Z,985
2018-02-12T12:29:02.798Z,215
2018-02-12T12:30:02.796Z,210
2018-02-12T12:31:02.543Z,520
2018-02-12T12:32:02.256Z,235
2018-02-12T12:33:02.760Z,220
2018-02-12T12:34:02.537Z,195
2018-02-12T12:35:02.209Z,160
2018-02-12T12:36:02.990Z,130
2018-02-12T12:37:02.178Z,115
2018-02-12T12:38:02.162Z,120
2018-02-12T12:39:02.936Z,135
2018-02-12T12:40:02.414Z,165
2018-02-12T12:41:02.654Z,195
2018-02-12T12:42:02.116Z,210
2018-02-12T12:43:02.631Z,590
2018-02-12T12:44:02.620Z,565
2018-02-12T12:45:02.641Z,495
2018-02-12T12:46:02.630Z,200
2018-02-12T12:47:02.321Z,325
2018-02-12T12:48:02.294Z,195
2018-02-12T12:49:02.019Z,195
2018-02-12T12:50:02.840Z,210
2018-02-12T12:51:02.525Z,210
2018-02-12T12:52:01.965Z,195
2018-02-12T12:53:02.212Z,225
2018-02-12T12:54:02.215Z,270
2018-02-12T12:55:02.184Z,455
2018-02-12T12:56:02.428Z,500
2018-02-12T12:57:02.165Z,210
2018-02-12T12:58:02.398Z,185
2018-02-12T12:59:01.865Z,175
2018-02-12T13:00:02.486Z,185
2018-02-12T13:01:02.090Z,145
2018-02-12T13:02:02.087Z,140
2018-02-12T13:03:02.059Z,135
2018-02-12T13:04:02.301Z,130
2018-02-12T13:05:02.088Z,135
2018-02-12T13:06:02.007Z,135
2018-02-12T13:07:01.988Z,165
2018-02-12T13:08:02.240Z,220
2018-02-12T13:09:01.426Z,880
2018-02-12T13:10:02.238Z,950
2018-02-12T13:11:01.928Z,975
2018-02-12T13:12:01.914Z,945
2018-02-12T13:13:01.903Z,900
2018-02-12T13:14:02.431Z,820
2018-02-12T13:15:02.048Z,865
2018-02-12T13:16:01.589Z,810
2018-02-12T13:17:01.561Z,750
2018-02-12T13:18:02.088Z,750
2018-02-12T13:19:01.534Z,720
2018-02-12T13:20:01.836Z,175
2018-02-12T13:21:01.506Z,160
2018-02-12T13:22:01.758Z,150
2018-02-12T13:23:01.483Z,135
2018-02-12T13:24:02.014Z,140
2018-02-12T13:25:01.713Z,175
2018-02-12T13:26:01.688Z,150
2018-02-12T13:27:01.969Z,705
2018-02-12T13:28:01.682Z,245
2018-02-12T13:29:02.188Z,140
2018-02-12T13:30:01.662Z,125
2018-02-12T13:31:01.892Z,120
2018-02-12T13:32:01.622Z,145
2018-02-12T13:33:01.618Z,200
2018-02-12T13:34:01.843Z,215
2018-02-12T13:35:01.345Z,205
2018-02-12T13:36:01.015Z,200
2018-02-12T13:37:01.791Z,170
2018-02-12T13:38:01.508Z,535
2018-02-12T13:39:02.029Z,415
2018-02-12T13:40:01.467Z,155
2018-02-12T13:41:01.458Z,170
2018-02-12T13:42:00.914Z,220
2018-02-12T13:43:01.957Z,575
2018-02-12T13:44:01.421Z,195
2018-02-12T13:45:01.715Z,165
2018-02-12T13:46:01.440Z,165
2018-02-12T13:47:01.109Z,165
2018-02-12T13:48:01.081Z,525
2018-02-12T13:49:01.639Z,170
2018-02-12T13:50:01.678Z,135
2018-02-12T13:51:01.581Z,130
2018-02-12T13:52:01.023Z,180
2018-02-12T13:53:01.267Z,635
2018-02-12T13:54:01.505Z,630
2018-02-12T13:55:01.293Z,600
2018-02-12T13:56:01.211Z,600
2018-02-12T13:57:01.507Z,190
2018-02-12T13:58:01.443Z,550
2018-02-12T13:59:01.187Z,200
2018-02-12T14:00:01.205Z,200
2018-02-12T14:01:01.671Z,210
2018-02-12T14:02:01.134Z,550
2018-02-12T14:03:01.377Z,540
2018-02-12T14:04:01.091Z,460
2018-02-12T14:05:01.649Z,550
2018-02-12T14:06:01.323Z,570
2018-02-12T14:07:01.044Z,580
2018-02-12T14:08:00.767Z,535
2018-02-12T14:09:01.281Z,545
2018-02-12T14:10:01.262Z,575
2018-02-12T14:11:01.000Z,535
2018-02-12T14:12:00.453Z,515
2018-02-12T14:13:01.236Z,560
2018-02-12T14:14:01.208Z,565
2018-02-12T14:15:00.683Z,565
2018-02-12T14:16:00.443Z,535
2018-02-12T14:17:00.914Z,485
2018-02-12T14:18:00.631Z,470
2018-02-12T14:19:00.886Z,455